sensor_id;sensor_type;location;lat;lon;timestamp;temperature;humidity
83683;DHT22;73663;51.298;5.802;2024-03-25T00:02:58;9.90;53.70
83683;DHT22;73663;51.298;5.802;2024-03-25T00:08:06;9.90;53.80
83683;DHT22;73663;51.298;5.802;2024-03-25T00:13:13;9.80;53.70
83683;DHT22;73663;51.298;5.802;2024-03-25T00:18:20;9.70;53.80
83683;DHT22;73663;51.298;5.802;2024-03-25T00:23:28;9.70;53.80
83683;DHT22;73663;51.298;5.802;2024-03-25T00:28:35;9.60;53.80
83683;DHT22;73663;51.298;5.802;2024-03-25T00:33:43;9.60;53.90
83683;DHT22;73663;51.298;5.802;2024-03-25T00:38:50;9.60;53.90
83683;DHT22;73663;51.298;5.802;2024-03-25T00:43:58;9.50;53.90
83683;DHT22;73663;51.298;5.802;2024-03-25T00:49:05;9.50;53.90
83683;DHT22;73663;51.298;5.802;2024-03-25T00:54:13;9.50;53.90
83683;DHT22;73663;51.298;5.802;2024-03-25T00:59:21;9.40;53.90
83683;DHT22;73663;51.298;5.802;2024-03-25T01:04:28;9.40;53.90
83683;DHT22;73663;51.298;5.802;2024-03-25T01:09:35;9.40;53.80
83683;DHT22;73663;51.298;5.802;2024-03-25T01:14:43;9.30;53.80
83683;DHT22;73663;51.298;5.802;2024-03-25T01:19:50;9.30;53.90
83683;DHT22;73663;51.298;5.802;2024-03-25T01:24:58;9.30;54.00
83683;DHT22;73663;51.298;5.802;2024-03-25T01:30:06;9.20;54.00
83683;DHT22;73663;51.298;5.802;2024-03-25T01:35:13;9.20;54.00
83683;DHT22;73663;51.298;5.802;2024-03-25T01:40:21;9.20;54.00
83683;DHT22;73663;51.298;5.802;2024-03-25T01:45:30;9.20;54.10
83683;DHT22;73663;51.298;5.802;2024-03-25T01:50:38;9.20;54.10
83683;DHT22;73663;51.298;5.802;2024-03-25T01:55:46;9.20;54.20
83683;DHT22;73663;51.298;5.802;2024-03-25T02:00:56;9.30;54.10
83683;DHT22;73663;51.298;5.802;2024-03-25T02:06:04;9.20;54.00
83683;DHT22;73663;51.298;5.802;2024-03-25T02:11:13;9.20;54.10
83683;DHT22;73663;51.298;5.802;2024-03-25T02:16:20;9.20;54.00
83683;DHT22;73663;51.298;5.802;2024-03-25T02:21:28;9.20;54.10
83683;DHT22;73663;51.298;5.802;2024-03-25T02:26:36;9.20;54.00
83683;DHT22;73663;51.298;5.802;2024-03-25T02:31:43;9.10;54.00
83683;DHT22;73663;51.298;5.802;2024-03-25T02:36:51;9.10;54.00
83683;DHT22;73663;51.298;5.802;2024-03-25T02:41:58;9.00;54.00
83683;DHT22;73663;51.298;5.802;2024-03-25T02:47:06;9.00;54.00
83683;DHT22;73663;51.298;5.802;2024-03-25T02:52:13;9.00;54.00
83683;DHT22;73663;51.298;5.802;2024-03-25T02:57:21;9.00;53.90
83683;DHT22;73663;51.298;5.802;2024-03-25T03:02:28;8.90;53.90
83683;DHT22;73663;51.298;5.802;2024-03-25T03:07:36;8.80;53.90
83683;DHT22;73663;51.298;5.802;2024-03-25T03:12:43;8.60;53.90
83683;DHT22;73663;51.298;5.802;2024-03-25T03:17:51;8.60;53.90
83683;DHT22;73663;51.298;5.802;2024-03-25T03:22:58;8.50;53.90
83683;DHT22;73663;51.298;5.802;2024-03-25T03:28:06;8.50;53.90
83683;DHT22;73663;51.298;5.802;2024-03-25T03:33:13;8.40;53.90
83683;DHT22;73663;51.298;5.802;2024-03-25T03:38:21;8.40;53.90
83683;DHT22;73663;51.298;5.802;2024-03-25T03:43:28;8.40;53.90
83683;DHT22;73663;51.298;5.802;2024-03-25T03:48:35;8.30;53.90
83683;DHT22;73663;51.298;5.802;2024-03-25T03:53:43;8.30;53.90
83683;DHT22;73663;51.298;5.802;2024-03-25T03:58:50;8.20;53.90
83683;DHT22;73663;51.298;5.802;2024-03-25T04:03:59;8.20;53.90
83683;DHT22;73663;51.298;5.802;2024-03-25T04:09:07;8.20;53.90
83683;DHT22;73663;51.298;5.802;2024-03-25T04:14:14;8.20;53.90
83683;DHT22;73663;51.298;5.802;2024-03-25T04:19:23;8.10;53.90
83683;DHT22;73663;51.298;5.802;2024-03-25T04:24:30;8.00;53.90
83683;DHT22;73663;51.298;5.802;2024-03-25T04:29:39;8.00;53.90
83683;DHT22;73663;51.298;5.802;2024-03-25T04:34:47;8.00;53.90
83683;DHT22;73663;51.298;5.802;2024-03-25T04:39:54;7.90;53.90
83683;DHT22;73663;51.298;5.802;2024-03-25T04:45:02;7.90;53.90
83683;DHT22;73663;51.298;5.802;2024-03-25T04:50:09;7.90;53.90
83683;DHT22;73663;51.298;5.802;2024-03-25T04:55:17;7.80;53.90
83683;DHT22;73663;51.298;5.802;2024-03-25T05:00:24;7.80;54.00
83683;DHT22;73663;51.298;5.802;2024-03-25T05:05:32;7.80;54.00
83683;DHT22;73663;51.298;5.802;2024-03-25T05:10:40;7.80;53.90
83683;DHT22;73663;51.298;5.802;2024-03-25T05:15:56;7.80;53.90
83683;DHT22;73663;51.298;5.802;2024-03-25T05:21:04;7.70;54.00
83683;DHT22;73663;51.298;5.802;2024-03-25T05:26:11;7.60;53.90
83683;DHT22;73663;51.298;5.802;2024-03-25T05:31:19;7.60;53.90
83683;DHT22;73663;51.298;5.802;2024-03-25T05:36:26;7.60;54.00
83683;DHT22;73663;51.298;5.802;2024-03-25T05:41:34;7.60;54.00
83683;DHT22;73663;51.298;5.802;2024-03-25T05:46:41;7.60;54.00
83683;DHT22;73663;51.298;5.802;2024-03-25T05:51:49;7.60;54.00
83683;DHT22;73663;51.298;5.802;2024-03-25T05:56:56;7.60;54.00
83683;DHT22;73663;51.298;5.802;2024-03-25T06:02:04;7.80;54.00
83683;DHT22;73663;51.298;5.802;2024-03-25T06:07:11;7.80;54.10
83683;DHT22;73663;51.298;5.802;2024-03-25T06:12:19;8.00;54.20
83683;DHT22;73663;51.298;5.802;2024-03-25T06:17:26;8.10;54.20
83683;DHT22;73663;51.298;5.802;2024-03-25T06:22:33;8.20;54.30
83683;DHT22;73663;51.298;5.802;2024-03-25T06:27:41;8.40;54.20
83683;DHT22;73663;51.298;5.802;2024-03-25T06:32:48;8.50;54.30
83683;DHT22;73663;51.298;5.802;2024-03-25T06:38:13;8.60;54.30
83683;DHT22;73663;51.298;5.802;2024-03-25T06:43:21;8.70;54.40
83683;DHT22;73663;51.298;5.802;2024-03-25T06:48:28;8.90;54.50
83683;DHT22;73663;51.298;5.802;2024-03-25T06:53:36;9.10;54.60
83683;DHT22;73663;51.298;5.802;2024-03-25T06:58:41;9.30;54.70
83683;DHT22;73663;51.298;5.802;2024-03-25T07:03:48;9.50;54.70
83683;DHT22;73663;51.298;5.802;2024-03-25T07:08:56;9.80;54.80
83683;DHT22;73663;51.298;5.802;2024-03-25T07:14:03;10.00;54.90
83683;DHT22;73663;51.298;5.802;2024-03-25T07:19:11;10.30;55.00
83683;DHT22;73663;51.298;5.802;2024-03-25T07:24:18;10.60;55.10
83683;DHT22;73663;51.298;5.802;2024-03-25T07:29:26;10.90;55.20
83683;DHT22;73663;51.298;5.802;2024-03-25T07:34:33;11.20;55.30
83683;DHT22;73663;51.298;5.802;2024-03-25T07:39:41;11.50;55.30
83683;DHT22;73663;51.298;5.802;2024-03-25T07:44:48;11.80;55.30
83683;DHT22;73663;51.298;5.802;2024-03-25T07:49:56;12.00;55.40
83683;DHT22;73663;51.298;5.802;2024-03-25T07:55:03;12.20;55.40
83683;DHT22;73663;51.298;5.802;2024-03-25T08:00:11;12.40;55.40
83683;DHT22;73663;51.298;5.802;2024-03-25T08:05:19;12.50;55.50
83683;DHT22;73663;51.298;5.802;2024-03-25T08:10:27;12.70;55.60
83683;DHT22;73663;51.298;5.802;2024-03-25T08:15:34;12.90;55.60
83683;DHT22;73663;51.298;5.802;2024-03-25T08:20:41;13.10;55.60
83683;DHT22;73663;51.298;5.802;2024-03-25T08:25:49;13.30;55.60
83683;DHT22;73663;51.298;5.802;2024-03-25T08:30:56;13.50;55.60
83683;DHT22;73663;51.298;5.802;2024-03-25T08:36:04;13.60;55.70
83683;DHT22;73663;51.298;5.802;2024-03-25T08:41:12;13.90;55.70
83683;DHT22;73663;51.298;5.802;2024-03-25T08:46:19;14.10;55.70
83683;DHT22;73663;51.298;5.802;2024-03-25T08:51:27;14.40;55.70
83683;DHT22;73663;51.298;5.802;2024-03-25T08:56:34;14.50;55.70
83683;DHT22;73663;51.298;5.802;2024-03-25T09:01:42;14.50;55.50
83683;DHT22;73663;51.298;5.802;2024-03-25T09:06:50;14.70;55.70
83683;DHT22;73663;51.298;5.802;2024-03-25T09:11:57;14.90;55.60
83683;DHT22;73663;51.298;5.802;2024-03-25T09:17:05;15.20;55.70
83683;DHT22;73663;51.298;5.802;2024-03-25T09:22:12;15.50;55.70
83683;DHT22;73663;51.298;5.802;2024-03-25T09:27:20;15.60;55.60
83683;DHT22;73663;51.298;5.802;2024-03-25T09:32:27;16.00;55.70
83683;DHT22;73663;51.298;5.802;2024-03-25T09:37:35;16.30;55.70
83683;DHT22;73663;51.298;5.802;2024-03-25T09:42:48;16.50;55.70
83683;DHT22;73663;51.298;5.802;2024-03-25T09:47:57;16.90;55.40
83683;DHT22;73663;51.298;5.802;2024-03-25T09:53:04;16.90;55.40
83683;DHT22;73663;51.298;5.802;2024-03-25T09:58:12;17.00;55.40
83683;DHT22;73663;51.298;5.802;2024-03-25T10:03:19;17.40;55.50
83683;DHT22;73663;51.298;5.802;2024-03-25T10:08:27;17.50;55.20
83683;DHT22;73663;51.298;5.802;2024-03-25T10:13:35;17.80;55.40
83683;DHT22;73663;51.298;5.802;2024-03-25T10:18:42;18.30;55.30
83683;DHT22;73663;51.298;5.802;2024-03-25T10:23:50;18.80;55.20
83683;DHT22;73663;51.298;5.802;2024-03-25T10:29:05;19.20;55.00
83683;DHT22;73663;51.298;5.802;2024-03-25T10:34:12;19.50;54.70
83683;DHT22;73663;51.298;5.802;2024-03-25T10:39:22;19.90;54.70
83683;DHT22;73663;51.298;5.802;2024-03-25T10:44:31;20.20;54.40
83683;DHT22;73663;51.298;5.802;2024-03-25T10:49:50;20.30;53.60
83683;DHT22;73663;51.298;5.802;2024-03-25T10:54:59;20.00;53.20
83683;DHT22;73663;51.298;5.802;2024-03-25T11:00:07;20.00;53.50
83683;DHT22;73663;51.298;5.802;2024-03-25T11:05:17;20.10;53.50
83683;DHT22;73663;51.298;5.802;2024-03-25T11:10:31;20.50;53.20
83683;DHT22;73663;51.298;5.802;2024-03-25T11:15:45;20.70;52.80
83683;DHT22;73663;51.298;5.802;2024-03-25T11:21:05;21.00;52.90
83683;DHT22;73663;51.298;5.802;2024-03-25T11:26:28;21.10;51.80
83683;DHT22;73663;51.298;5.802;2024-03-25T11:31:39;21.30;51.20
83683;DHT22;73663;51.298;5.802;2024-03-25T11:36:47;21.30;51.70
83683;DHT22;73663;51.298;5.802;2024-03-25T11:41:55;21.50;51.30
83683;DHT22;73663;51.298;5.802;2024-03-25T11:47:03;21.60;51.20
83683;DHT22;73663;51.298;5.802;2024-03-25T11:52:10;21.90;51.10
83683;DHT22;73663;51.298;5.802;2024-03-25T11:57:18;22.10;50.70
83683;DHT22;73663;51.298;5.802;2024-03-25T12:02:25;22.20;50.30
83683;DHT22;73663;51.298;5.802;2024-03-25T12:07:33;22.30;50.30
83683;DHT22;73663;51.298;5.802;2024-03-25T12:12:40;22.10;49.90
83683;DHT22;73663;51.298;5.802;2024-03-25T12:17:48;21.70;50.10
83683;DHT22;73663;51.298;5.802;2024-03-25T12:22:56;22.60;50.20
83683;DHT22;73663;51.298;5.802;2024-03-25T12:28:07;24.50;50.00
83683;DHT22;73663;51.298;5.802;2024-03-25T12:33:14;26.50;49.00
83683;DHT22;73663;51.298;5.802;2024-03-25T12:38:31;28.10;47.90
83683;DHT22;73663;51.298;5.802;2024-03-25T12:43:41;29.50;47.10
83683;DHT22;73663;51.298;5.802;2024-03-25T12:48:49;30.80;47.00
83683;DHT22;73663;51.298;5.802;2024-03-25T12:53:57;31.40;45.80
83683;DHT22;73663;51.298;5.802;2024-03-25T12:59:04;31.50;45.50
83683;DHT22;73663;51.298;5.802;2024-03-25T13:04:12;31.70;44.80
83683;DHT22;73663;51.298;5.802;2024-03-25T13:09:19;32.20;44.50
83683;DHT22;73663;51.298;5.802;2024-03-25T13:14:27;32.80;44.50
83683;DHT22;73663;51.298;5.802;2024-03-25T13:19:34;33.60;43.80
83683;DHT22;73663;51.298;5.802;2024-03-25T13:24:42;34.10;42.90
83683;DHT22;73663;51.298;5.802;2024-03-25T13:29:49;34.30;42.50
83683;DHT22;73663;51.298;5.802;2024-03-25T13:34:54;34.50;41.90
83683;DHT22;73663;51.298;5.802;2024-03-25T13:40:02;34.70;43.80
83683;DHT22;73663;51.298;5.802;2024-03-25T13:45:10;34.60;41.80
83683;DHT22;73663;51.298;5.802;2024-03-25T13:50:18;34.80;41.50
83683;DHT22;73663;51.298;5.802;2024-03-25T13:55:27;35.40;40.90
83683;DHT22;73663;51.298;5.802;2024-03-25T14:00:32;35.60;40.20
83683;DHT22;73663;51.298;5.802;2024-03-25T14:05:39;35.70;42.60
83683;DHT22;73663;51.298;5.802;2024-03-25T14:10:45;35.30;40.10
83683;DHT22;73663;51.298;5.802;2024-03-25T14:15:52;35.00;42.40
83683;DHT22;73663;51.298;5.802;2024-03-25T14:21:00;35.20;39.70
83683;DHT22;73663;51.298;5.802;2024-03-25T14:26:07;35.30;39.50
83683;DHT22;73663;51.298;5.802;2024-03-25T14:31:15;35.10;38.80
83683;DHT22;73663;51.298;5.802;2024-03-25T14:36:20;35.00;39.00
83683;DHT22;73663;51.298;5.802;2024-03-25T14:41:27;34.70;40.30
83683;DHT22;73663;51.298;5.802;2024-03-25T14:46:44;34.40;38.90
83683;DHT22;73663;51.298;5.802;2024-03-25T14:51:49;35.00;39.00
83683;DHT22;73663;51.298;5.802;2024-03-25T14:56:57;35.50;41.00
83683;DHT22;73663;51.298;5.802;2024-03-25T15:02:04;36.30;38.90
83683;DHT22;73663;51.298;5.802;2024-03-25T15:07:12;37.00;38.20
83683;DHT22;73663;51.298;5.802;2024-03-25T15:12:19;37.30;37.70
83683;DHT22;73663;51.298;5.802;2024-03-25T15:17:27;37.20;37.40
83683;DHT22;73663;51.298;5.802;2024-03-25T15:22:34;36.70;37.10
83683;DHT22;73663;51.298;5.802;2024-03-25T15:27:42;36.50;37.30
83683;DHT22;73663;51.298;5.802;2024-03-25T15:32:50;36.40;37.40
83683;DHT22;73663;51.298;5.802;2024-03-25T15:37:57;36.00;37.00
83683;DHT22;73663;51.298;5.802;2024-03-25T15:43:05;35.30;37.10
83683;DHT22;73663;51.298;5.802;2024-03-25T15:48:12;34.60;37.10
83683;DHT22;73663;51.298;5.802;2024-03-25T15:53:20;33.70;36.70
83683;DHT22;73663;51.298;5.802;2024-03-25T15:58:27;33.00;36.90
83683;DHT22;73663;51.298;5.802;2024-03-25T16:03:35;32.20;36.70
83683;DHT22;73663;51.298;5.802;2024-03-25T16:08:42;31.10;36.80
83683;DHT22;73663;51.298;5.802;2024-03-25T16:13:50;30.10;37.00
83683;DHT22;73663;51.298;5.802;2024-03-25T16:18:57;29.50;37.30
83683;DHT22;73663;51.298;5.802;2024-03-25T16:24:05;28.90;37.50
83683;DHT22;73663;51.298;5.802;2024-03-25T16:29:12;28.30;37.50
83683;DHT22;73663;51.298;5.802;2024-03-25T16:34:20;27.40;37.60
83683;DHT22;73663;51.298;5.802;2024-03-25T16:39:27;26.30;37.70
83683;DHT22;73663;51.298;5.802;2024-03-25T16:44:35;25.00;37.90
83683;DHT22;73663;51.298;5.802;2024-03-25T16:49:42;24.00;38.20
83683;DHT22;73663;51.298;5.802;2024-03-25T16:54:50;23.10;38.40
83683;DHT22;73663;51.298;5.802;2024-03-25T16:59:58;22.30;38.60
83683;DHT22;73663;51.298;5.802;2024-03-25T17:05:05;21.60;38.80
83683;DHT22;73663;51.298;5.802;2024-03-25T17:10:13;21.00;38.90
83683;DHT22;73663;51.298;5.802;2024-03-25T17:15:21;20.50;39.00
83683;DHT22;73663;51.298;5.802;2024-03-25T17:20:29;19.90;39.10
83683;DHT22;73663;51.298;5.802;2024-03-25T17:25:38;19.30;39.30
83683;DHT22;73663;51.298;5.802;2024-03-25T17:30:44;18.80;39.40
83683;DHT22;73663;51.298;5.802;2024-03-25T17:35:52;18.30;39.00
83683;DHT22;73663;51.298;5.802;2024-03-25T17:40:59;17.80;39.10
83683;DHT22;73663;51.298;5.802;2024-03-25T17:46:07;17.40;39.30
83683;DHT22;73663;51.298;5.802;2024-03-25T17:51:14;17.00;39.50
83683;DHT22;73663;51.298;5.802;2024-03-25T17:56:22;16.60;39.60
83683;DHT22;73663;51.298;5.802;2024-03-25T18:01:29;16.20;39.70
83683;DHT22;73663;51.298;5.802;2024-03-25T18:06:36;15.80;39.70
83683;DHT22;73663;51.298;5.802;2024-03-25T18:11:44;15.60;39.80
83683;DHT22;73663;51.298;5.802;2024-03-25T18:16:52;15.30;40.00
83683;DHT22;73663;51.298;5.802;2024-03-25T18:22:00;15.00;40.10
83683;DHT22;73663;51.298;5.802;2024-03-25T18:27:07;14.80;40.10
83683;DHT22;73663;51.298;5.802;2024-03-25T18:32:15;14.60;40.20
83683;DHT22;73663;51.298;5.802;2024-03-25T18:37:23;14.50;40.30
83683;DHT22;73663;51.298;5.802;2024-03-25T18:42:30;14.40;40.40
83683;DHT22;73663;51.298;5.802;2024-03-25T18:47:38;14.30;40.40
83683;DHT22;73663;51.298;5.802;2024-03-25T18:52:45;14.10;40.50
83683;DHT22;73663;51.298;5.802;2024-03-25T18:57:53;14.00;40.60
83683;DHT22;73663;51.298;5.802;2024-03-25T19:03:00;13.90;40.70
83683;DHT22;73663;51.298;5.802;2024-03-25T19:08:08;13.90;40.70
83683;DHT22;73663;51.298;5.802;2024-03-25T19:13:15;13.80;40.80
83683;DHT22;73663;51.298;5.802;2024-03-25T19:18:23;13.70;40.90
83683;DHT22;73663;51.298;5.802;2024-03-25T19:23:30;13.60;40.90
83683;DHT22;73663;51.298;5.802;2024-03-25T19:28:38;13.50;40.90
83683;DHT22;73663;51.298;5.802;2024-03-25T19:33:45;13.50;40.90
83683;DHT22;73663;51.298;5.802;2024-03-25T19:38:52;13.40;41.00
83683;DHT22;73663;51.298;5.802;2024-03-25T19:44:00;13.30;41.10
83683;DHT22;73663;51.298;5.802;2024-03-25T19:49:07;13.20;41.20
83683;DHT22;73663;51.298;5.802;2024-03-25T19:54:15;13.10;41.20
83683;DHT22;73663;51.298;5.802;2024-03-25T19:59:23;13.10;41.30
83683;DHT22;73663;51.298;5.802;2024-03-25T20:04:30;13.00;41.40
83683;DHT22;73663;51.298;5.802;2024-03-25T20:09:38;13.00;41.50
83683;DHT22;73663;51.298;5.802;2024-03-25T20:14:45;12.90;41.50
83683;DHT22;73663;51.298;5.802;2024-03-25T20:19:52;12.90;41.50
83683;DHT22;73663;51.298;5.802;2024-03-25T20:25:00;12.80;41.60
83683;DHT22;73663;51.298;5.802;2024-03-25T20:30:08;12.70;41.70
83683;DHT22;73663;51.298;5.802;2024-03-25T20:35:15;12.70;41.70
83683;DHT22;73663;51.298;5.802;2024-03-25T20:40:23;12.60;41.80
83683;DHT22;73663;51.298;5.802;2024-03-25T20:45:30;12.50;41.80
83683;DHT22;73663;51.298;5.802;2024-03-25T20:50:38;12.50;41.80
83683;DHT22;73663;51.298;5.802;2024-03-25T20:55:45;12.40;41.90
83683;DHT22;73663;51.298;5.802;2024-03-25T21:00:53;12.30;41.90
83683;DHT22;73663;51.298;5.802;2024-03-25T21:06:01;12.20;42.00
83683;DHT22;73663;51.298;5.802;2024-03-25T21:11:08;12.20;42.00
83683;DHT22;73663;51.298;5.802;2024-03-25T21:16:16;12.10;42.10
83683;DHT22;73663;51.298;5.802;2024-03-25T21:21:24;12.10;42.10
83683;DHT22;73663;51.298;5.802;2024-03-25T21:26:31;12.10;42.20
83683;DHT22;73663;51.298;5.802;2024-03-25T21:31:39;12.00;42.20
83683;DHT22;73663;51.298;5.802;2024-03-25T21:36:47;12.00;42.30
83683;DHT22;73663;51.298;5.802;2024-03-25T21:41:54;12.00;42.30
83683;DHT22;73663;51.298;5.802;2024-03-25T21:47:02;12.00;42.40
83683;DHT22;73663;51.298;5.802;2024-03-25T21:52:09;11.90;42.40
83683;DHT22;73663;51.298;5.802;2024-03-25T21:57:17;11.90;42.50
83683;DHT22;73663;51.298;5.802;2024-03-25T22:02:25;11.90;42.50
83683;DHT22;73663;51.298;5.802;2024-03-25T22:07:32;11.90;42.60
83683;DHT22;73663;51.298;5.802;2024-03-25T22:12:40;11.80;42.60
83683;DHT22;73663;51.298;5.802;2024-03-25T22:17:47;11.70;42.70
83683;DHT22;73663;51.298;5.802;2024-03-25T22:22:55;11.70;42.70
83683;DHT22;73663;51.298;5.802;2024-03-25T22:28:02;11.70;42.70
83683;DHT22;73663;51.298;5.802;2024-03-25T22:33:09;11.70;42.80
83683;DHT22;73663;51.298;5.802;2024-03-25T22:38:17;11.70;42.80
83683;DHT22;73663;51.298;5.802;2024-03-25T22:43:25;11.70;42.90
83683;DHT22;73663;51.298;5.802;2024-03-25T22:48:32;11.60;42.90
83683;DHT22;73663;51.298;5.802;2024-03-25T22:53:40;11.60;43.00
83683;DHT22;73663;51.298;5.802;2024-03-25T22:58:47;11.60;43.10
83683;DHT22;73663;51.298;5.802;2024-03-25T23:03:54;11.60;43.00
83683;DHT22;73663;51.298;5.802;2024-03-25T23:09:02;11.60;43.10
83683;DHT22;73663;51.298;5.802;2024-03-25T23:14:10;11.60;43.20
83683;DHT22;73663;51.298;5.802;2024-03-25T23:19:17;11.60;43.20
83683;DHT22;73663;51.298;5.802;2024-03-25T23:24:24;11.50;43.20
83683;DHT22;73663;51.298;5.802;2024-03-25T23:29:32;11.50;43.30
83683;DHT22;73663;51.298;5.802;2024-03-25T23:34:39;11.50;43.30
83683;DHT22;73663;51.298;5.802;2024-03-25T23:39:47;11.50;43.30
83683;DHT22;73663;51.298;5.802;2024-03-25T23:44:54;11.50;43.40
83683;DHT22;73663;51.298;5.802;2024-03-25T23:50:02;11.50;43.50
83683;DHT22;73663;51.298;5.802;2024-03-25T23:55:09;11.50;43.50
